sensor_id;sensor_type;location;lat;lon;timestamp;temperature;humidity
11647;DHT22;5880;52.342;9.662;2023-08-06T00:00:26;18.90;70.90
11647;DHT22;5880;52.342;9.662;2023-08-06T00:02:53;18.90;70.90
11647;DHT22;5880;52.342;9.662;2023-08-06T00:05:19;18.90;71.00
11647;DHT22;5880;52.342;9.662;2023-08-06T00:07:49;18.90;71.00
11647;DHT22;5880;52.342;9.662;2023-08-06T00:10:16;18.90;71.10
11647;DHT22;5880;52.342;9.662;2023-08-06T00:12:42;18.90;71.00
11647;DHT22;5880;52.342;9.662;2023-08-06T00:15:11;18.90;71.10
11647;DHT22;5880;52.342;9.662;2023-08-06T00:17:37;18.90;71.20
11647;DHT22;5880;52.342;9.662;2023-08-06T00:20:04;18.90;71.10
11647;DHT22;5880;52.342;9.662;2023-08-06T00:22:38;18.90;71.10
11647;DHT22;5880;52.342;9.662;2023-08-06T00:25:04;18.90;71.20
11647;DHT22;5880;52.342;9.662;2023-08-06T00:27:31;18.90;70.90
11647;DHT22;5880;52.342;9.662;2023-08-06T00:29:58;18.90;70.90
11647;DHT22;5880;52.342;9.662;2023-08-06T00:32:24;18.90;71.00
11647;DHT22;5880;52.342;9.662;2023-08-06T00:34:50;18.90;70.90
11647;DHT22;5880;52.342;9.662;2023-08-06T00:37:16;18.80;70.80
11647;DHT22;5880;52.342;9.662;2023-08-06T00:39:43;18.80;70.90
11647;DHT22;5880;52.342;9.662;2023-08-06T00:42:11;18.90;71.10
11647;DHT22;5880;52.342;9.662;2023-08-06T00:44:38;18.90;71.10
11647;DHT22;5880;52.342;9.662;2023-08-06T00:47:04;18.80;71.10
11647;DHT22;5880;52.342;9.662;2023-08-06T00:49:31;18.80;71.00
11647;DHT22;5880;52.342;9.662;2023-08-06T00:51:57;19.10;71.20
11647;DHT22;5880;52.342;9.662;2023-08-06T00:54:24;18.90;71.10
11647;DHT22;5880;52.342;9.662;2023-08-06T00:56:50;18.80;71.00
11647;DHT22;5880;52.342;9.662;2023-08-06T00:59:16;18.80;71.00
11647;DHT22;5880;52.342;9.662;2023-08-06T01:01:41;18.80;71.80
11647;DHT22;5880;52.342;9.662;2023-08-06T01:04:08;18.90;71.20
11647;DHT22;5880;52.342;9.662;2023-08-06T01:06:47;18.80;71.20
11647;DHT22;5880;52.342;9.662;2023-08-06T01:09:31;18.80;71.30
11647;DHT22;5880;52.342;9.662;2023-08-06T01:12:22;18.90;71.40
11647;DHT22;5880;52.342;9.662;2023-08-06T01:15:02;18.90;71.50
11647;DHT22;5880;52.342;9.662;2023-08-06T01:17:54;18.90;71.30
11647;DHT22;5880;52.342;9.662;2023-08-06T01:20:20;19.00;71.20
11647;DHT22;5880;52.342;9.662;2023-08-06T01:22:47;18.80;71.10
11647;DHT22;5880;52.342;9.662;2023-08-06T01:25:15;18.90;71.20
11647;DHT22;5880;52.342;9.662;2023-08-06T01:27:48;18.90;71.30
11647;DHT22;5880;52.342;9.662;2023-08-06T01:30:27;18.80;71.50
11647;DHT22;5880;52.342;9.662;2023-08-06T01:32:58;18.90;71.70
11647;DHT22;5880;52.342;9.662;2023-08-06T01:35:27;18.90;71.70
11647;DHT22;5880;52.342;9.662;2023-08-06T01:37:55;18.90;71.60
11647;DHT22;5880;52.342;9.662;2023-08-06T01:40:22;18.80;71.50
11647;DHT22;5880;52.342;9.662;2023-08-06T01:42:47;18.90;71.50
11647;DHT22;5880;52.342;9.662;2023-08-06T01:45:13;18.80;71.40
11647;DHT22;5880;52.342;9.662;2023-08-06T01:47:39;18.90;71.50
11647;DHT22;5880;52.342;9.662;2023-08-06T01:50:05;18.80;71.30
11647;DHT22;5880;52.342;9.662;2023-08-06T01:52:31;18.80;71.30
11647;DHT22;5880;52.342;9.662;2023-08-06T01:54:57;18.80;71.20
11647;DHT22;5880;52.342;9.662;2023-08-06T01:57:22;18.80;72.00
11647;DHT22;5880;52.342;9.662;2023-08-06T01:59:48;18.80;71.30
11647;DHT22;5880;52.342;9.662;2023-08-06T02:02:14;18.90;71.50
11647;DHT22;5880;52.342;9.662;2023-08-06T02:04:39;18.80;71.40
11647;DHT22;5880;52.342;9.662;2023-08-06T02:07:05;18.80;71.50
11647;DHT22;5880;52.342;9.662;2023-08-06T02:09:31;18.80;71.40
11647;DHT22;5880;52.342;9.662;2023-08-06T02:11:57;18.80;71.50
11647;DHT22;5880;52.342;9.662;2023-08-06T02:14:22;18.90;71.60
11647;DHT22;5880;52.342;9.662;2023-08-06T02:16:48;18.90;71.50
11647;DHT22;5880;52.342;9.662;2023-08-06T02:19:15;18.90;71.50
11647;DHT22;5880;52.342;9.662;2023-08-06T02:21:40;18.80;71.40
11647;DHT22;5880;52.342;9.662;2023-08-06T02:24:07;18.80;71.40
11647;DHT22;5880;52.342;9.662;2023-08-06T02:26:33;18.80;71.40
11647;DHT22;5880;52.342;9.662;2023-08-06T02:28:59;18.80;71.30
11647;DHT22;5880;52.342;9.662;2023-08-06T02:31:24;18.80;71.40
11647;DHT22;5880;52.342;9.662;2023-08-06T02:33:50;18.80;71.40
11647;DHT22;5880;52.342;9.662;2023-08-06T02:36:17;18.80;71.40
11647;DHT22;5880;52.342;9.662;2023-08-06T02:38:42;18.70;71.50
11647;DHT22;5880;52.342;9.662;2023-08-06T02:41:08;18.70;71.40
11647;DHT22;5880;52.342;9.662;2023-08-06T02:43:34;18.70;71.40
11647;DHT22;5880;52.342;9.662;2023-08-06T02:46:00;18.70;71.40
11647;DHT22;5880;52.342;9.662;2023-08-06T02:48:26;19.20;71.60
11647;DHT22;5880;52.342;9.662;2023-08-06T02:50:52;18.70;71.30
11647;DHT22;5880;52.342;9.662;2023-08-06T02:53:18;18.70;71.40
11647;DHT22;5880;52.342;9.662;2023-08-06T02:55:47;18.60;71.40
11647;DHT22;5880;52.342;9.662;2023-08-06T02:58:16;18.60;71.60
11647;DHT22;5880;52.342;9.662;2023-08-06T03:00:43;18.60;71.60
11647;DHT22;5880;52.342;9.662;2023-08-06T03:03:09;18.60;71.60
11647;DHT22;5880;52.342;9.662;2023-08-06T03:05:35;18.60;71.60
11647;DHT22;5880;52.342;9.662;2023-08-06T03:08:01;19.00;71.80
11647;DHT22;5880;52.342;9.662;2023-08-06T03:10:26;18.60;71.80
11647;DHT22;5880;52.342;9.662;2023-08-06T03:12:52;18.60;71.80
11647;DHT22;5880;52.342;9.662;2023-08-06T03:15:18;18.60;71.90
11647;DHT22;5880;52.342;9.662;2023-08-06T03:17:43;18.60;71.90
11647;DHT22;5880;52.342;9.662;2023-08-06T03:20:10;18.60;71.90
11647;DHT22;5880;52.342;9.662;2023-08-06T03:22:36;18.60;71.90
11647;DHT22;5880;52.342;9.662;2023-08-06T03:25:01;18.60;71.90
11647;DHT22;5880;52.342;9.662;2023-08-06T03:27:28;18.60;72.00
11647;DHT22;5880;52.342;9.662;2023-08-06T03:29:53;18.60;72.10
11647;DHT22;5880;52.342;9.662;2023-08-06T03:32:19;18.60;72.00
11647;DHT22;5880;52.342;9.662;2023-08-06T03:34:45;18.60;72.00
11647;DHT22;5880;52.342;9.662;2023-08-06T03:37:11;18.60;71.90
11647;DHT22;5880;52.342;9.662;2023-08-06T03:39:37;18.60;71.90
11647;DHT22;5880;52.342;9.662;2023-08-06T03:42:03;18.60;71.90
11647;DHT22;5880;52.342;9.662;2023-08-06T03:44:29;18.60;71.90
11647;DHT22;5880;52.342;9.662;2023-08-06T03:46:54;19.20;72.20
11647;DHT22;5880;52.342;9.662;2023-08-06T03:49:20;18.60;71.90
11647;DHT22;5880;52.342;9.662;2023-08-06T03:51:46;18.60;71.80
11647;DHT22;5880;52.342;9.662;2023-08-06T03:54:12;18.60;71.80
11647;DHT22;5880;52.342;9.662;2023-08-06T03:56:37;18.60;71.80
11647;DHT22;5880;52.342;9.662;2023-08-06T03:59:03;18.60;71.80
11647;DHT22;5880;52.342;9.662;2023-08-06T04:01:29;18.80;72.00
11647;DHT22;5880;52.342;9.662;2023-08-06T04:03:54;18.60;72.00
11647;DHT22;5880;52.342;9.662;2023-08-06T04:06:20;18.60;72.10
11647;DHT22;5880;52.342;9.662;2023-08-06T04:08:46;18.60;72.00
11647;DHT22;5880;52.342;9.662;2023-08-06T04:11:11;18.60;72.00
11647;DHT22;5880;52.342;9.662;2023-08-06T04:13:38;18.60;72.00
11647;DHT22;5880;52.342;9.662;2023-08-06T04:16:07;18.60;71.90
11647;DHT22;5880;52.342;9.662;2023-08-06T04:18:32;18.80;71.90
11647;DHT22;5880;52.342;9.662;2023-08-06T04:20:58;18.60;71.80
11647;DHT22;5880;52.342;9.662;2023-08-06T04:23:24;18.60;71.80
11647;DHT22;5880;52.342;9.662;2023-08-06T04:25:50;18.70;71.90
11647;DHT22;5880;52.342;9.662;2023-08-06T04:28:15;18.60;71.80
11647;DHT22;5880;52.342;9.662;2023-08-06T04:30:41;18.50;71.80
11647;DHT22;5880;52.342;9.662;2023-08-06T04:33:07;18.50;71.70
11647;DHT22;5880;52.342;9.662;2023-08-06T04:35:32;18.50;71.80
11647;DHT22;5880;52.342;9.662;2023-08-06T04:37:58;18.50;71.80
11647;DHT22;5880;52.342;9.662;2023-08-06T04:40:24;18.50;72.00
11647;DHT22;5880;52.342;9.662;2023-08-06T04:42:49;18.50;72.00
11647;DHT22;5880;52.342;9.662;2023-08-06T04:45:15;18.50;72.00
11647;DHT22;5880;52.342;9.662;2023-08-06T04:47:41;18.50;72.10
11647;DHT22;5880;52.342;9.662;2023-08-06T04:50:07;18.50;72.20
11647;DHT22;5880;52.342;9.662;2023-08-06T04:52:32;18.50;72.30
11647;DHT22;5880;52.342;9.662;2023-08-06T04:54:58;18.50;72.40
11647;DHT22;5880;52.342;9.662;2023-08-06T04:57:24;18.50;72.40
11647;DHT22;5880;52.342;9.662;2023-08-06T04:59:49;18.50;72.40
11647;DHT22;5880;52.342;9.662;2023-08-06T05:02:15;18.50;72.40
11647;DHT22;5880;52.342;9.662;2023-08-06T05:04:41;18.60;72.50
11647;DHT22;5880;52.342;9.662;2023-08-06T05:07:06;18.60;72.50
11647;DHT22;5880;52.342;9.662;2023-08-06T05:09:33;18.60;72.50
11647;DHT22;5880;52.342;9.662;2023-08-06T05:12:01;18.60;72.60
11647;DHT22;5880;52.342;9.662;2023-08-06T05:14:27;18.60;72.70
11647;DHT22;5880;52.342;9.662;2023-08-06T05:16:53;18.60;72.60
11647;DHT22;5880;52.342;9.662;2023-08-06T05:19:19;18.70;72.70
11647;DHT22;5880;52.342;9.662;2023-08-06T05:21:44;18.70;72.90
11647;DHT22;5880;52.342;9.662;2023-08-06T05:24:10;18.70;72.90
11647;DHT22;5880;52.342;9.662;2023-08-06T05:26:36;18.70;73.00
11647;DHT22;5880;52.342;9.662;2023-08-06T05:29:02;18.80;73.00
11647;DHT22;5880;52.342;9.662;2023-08-06T05:31:27;19.20;73.40
11647;DHT22;5880;52.342;9.662;2023-08-06T05:33:54;18.80;73.30
11647;DHT22;5880;52.342;9.662;2023-08-06T05:36:20;18.90;73.40
11647;DHT22;5880;52.342;9.662;2023-08-06T05:38:46;19.00;73.30
11647;DHT22;5880;52.342;9.662;2023-08-06T05:41:12;19.00;73.20
11647;DHT22;5880;52.342;9.662;2023-08-06T05:43:38;19.10;73.10
11647;DHT22;5880;52.342;9.662;2023-08-06T05:46:04;19.20;73.10
11647;DHT22;5880;52.342;9.662;2023-08-06T05:48:30;19.20;73.40
11647;DHT22;5880;52.342;9.662;2023-08-06T05:50:55;19.30;73.80
11647;DHT22;5880;52.342;9.662;2023-08-06T05:53:21;19.30;73.70
11647;DHT22;5880;52.342;9.662;2023-08-06T05:55:47;19.40;73.40
11647;DHT22;5880;52.342;9.662;2023-08-06T05:58:13;19.60;74.30
11647;DHT22;5880;52.342;9.662;2023-08-06T06:00:38;19.70;75.80
11647;DHT22;5880;52.342;9.662;2023-08-06T06:03:04;20.00;77.20
11647;DHT22;5880;52.342;9.662;2023-08-06T06:05:30;20.30;78.40
11647;DHT22;5880;52.342;9.662;2023-08-06T06:07:55;20.70;79.20
11647;DHT22;5880;52.342;9.662;2023-08-06T06:10:21;21.10;78.70
11647;DHT22;5880;52.342;9.662;2023-08-06T06:12:47;21.50;77.40
11647;DHT22;5880;52.342;9.662;2023-08-06T06:15:12;21.90;76.50
11647;DHT22;5880;52.342;9.662;2023-08-06T06:17:38;22.30;76.20
11647;DHT22;5880;52.342;9.662;2023-08-06T06:20:04;22.60;75.80
11647;DHT22;5880;52.342;9.662;2023-08-06T06:22:31;22.80;74.90
11647;DHT22;5880;52.342;9.662;2023-08-06T06:24:56;23.00;74.60
11647;DHT22;5880;52.342;9.662;2023-08-06T06:27:22;23.30;74.50
11647;DHT22;5880;52.342;9.662;2023-08-06T06:29:48;23.60;74.00
11647;DHT22;5880;52.342;9.662;2023-08-06T06:32:13;23.80;74.20
11647;DHT22;5880;52.342;9.662;2023-08-06T06:34:39;24.20;74.30
11647;DHT22;5880;52.342;9.662;2023-08-06T06:37:05;24.40;73.70
11647;DHT22;5880;52.342;9.662;2023-08-06T06:39:30;24.70;72.60
11647;DHT22;5880;52.342;9.662;2023-08-06T06:41:56;24.90;71.60
11647;DHT22;5880;52.342;9.662;2023-08-06T06:44:22;25.00;71.00
11647;DHT22;5880;52.342;9.662;2023-08-06T06:46:47;25.10;69.50
11647;DHT22;5880;52.342;9.662;2023-08-06T06:49:13;25.20;68.10
11647;DHT22;5880;52.342;9.662;2023-08-06T06:51:39;25.30;67.70
11647;DHT22;5880;52.342;9.662;2023-08-06T06:54:04;25.10;67.00
11647;DHT22;5880;52.342;9.662;2023-08-06T06:56:30;25.00;66.60
11647;DHT22;5880;52.342;9.662;2023-08-06T06:58:56;24.90;66.90
11647;DHT22;5880;52.342;9.662;2023-08-06T07:01:21;24.90;67.00
11647;DHT22;5880;52.342;9.662;2023-08-06T07:03:47;24.80;66.90
11647;DHT22;5880;52.342;9.662;2023-08-06T07:06:13;24.80;67.50
11647;DHT22;5880;52.342;9.662;2023-08-06T07:08:38;24.80;68.40
11647;DHT22;5880;52.342;9.662;2023-08-06T07:11:05;25.00;69.30
11647;DHT22;5880;52.342;9.662;2023-08-06T07:13:33;25.30;69.60
11647;DHT22;5880;52.342;9.662;2023-08-06T07:15:59;25.40;69.10
11647;DHT22;5880;52.342;9.662;2023-08-06T07:18:25;25.60;67.90
11647;DHT22;5880;52.342;9.662;2023-08-06T07:20:52;25.80;66.90
11647;DHT22;5880;52.342;9.662;2023-08-06T07:23:20;25.90;67.10
11647;DHT22;5880;52.342;9.662;2023-08-06T07:25:47;26.00;66.00
11647;DHT22;5880;52.342;9.662;2023-08-06T07:28:14;26.10;66.10
11647;DHT22;5880;52.342;9.662;2023-08-06T07:30:40;26.20;65.20
11647;DHT22;5880;52.342;9.662;2023-08-06T07:33:07;26.20;64.90
11647;DHT22;5880;52.342;9.662;2023-08-06T07:35:35;26.20;64.30
11647;DHT22;5880;52.342;9.662;2023-08-06T07:38:02;26.20;64.00
11647;DHT22;5880;52.342;9.662;2023-08-06T07:40:28;26.10;63.30
11647;DHT22;5880;52.342;9.662;2023-08-06T07:42:54;26.10;63.00
11647;DHT22;5880;52.342;9.662;2023-08-06T07:45:20;26.00;62.60
11647;DHT22;5880;52.342;9.662;2023-08-06T07:47:46;25.90;62.00
11647;DHT22;5880;52.342;9.662;2023-08-06T07:50:13;25.80;61.70
11647;DHT22;5880;52.342;9.662;2023-08-06T07:52:39;25.60;61.20
11647;DHT22;5880;52.342;9.662;2023-08-06T07:55:05;25.50;61.40
11647;DHT22;5880;52.342;9.662;2023-08-06T07:57:32;25.30;61.70
11647;DHT22;5880;52.342;9.662;2023-08-06T07:59:59;25.20;62.40
11647;DHT22;5880;52.342;9.662;2023-08-06T08:02:24;25.10;62.60
11647;DHT22;5880;52.342;9.662;2023-08-06T08:04:50;24.80;62.90
11647;DHT22;5880;52.342;9.662;2023-08-06T08:07:16;24.80;62.80
11647;DHT22;5880;52.342;9.662;2023-08-06T08:09:41;24.80;63.00
11647;DHT22;5880;52.342;9.662;2023-08-06T08:12:07;24.60;63.10
11647;DHT22;5880;52.342;9.662;2023-08-06T08:14:33;24.50;63.10
11647;DHT22;5880;52.342;9.662;2023-08-06T08:17:03;24.40;63.40
11647;DHT22;5880;52.342;9.662;2023-08-06T08:19:29;24.30;63.70
11647;DHT22;5880;52.342;9.662;2023-08-06T08:21:55;24.30;63.80
11647;DHT22;5880;52.342;9.662;2023-08-06T08:24:21;24.20;64.00
11647;DHT22;5880;52.342;9.662;2023-08-06T08:26:52;24.20;64.50
11647;DHT22;5880;52.342;9.662;2023-08-06T08:29:22;24.10;64.40
11647;DHT22;5880;52.342;9.662;2023-08-06T08:31:49;24.10;64.00
11647;DHT22;5880;52.342;9.662;2023-08-06T08:34:16;24.10;64.50
11647;DHT22;5880;52.342;9.662;2023-08-06T08:36:42;24.00;63.50
11647;DHT22;5880;52.342;9.662;2023-08-06T08:39:08;24.00;63.80
11647;DHT22;5880;52.342;9.662;2023-08-06T08:41:36;23.90;63.50
11647;DHT22;5880;52.342;9.662;2023-08-06T08:44:02;23.80;63.50
11647;DHT22;5880;52.342;9.662;2023-08-06T08:46:33;23.80;63.80
11647;DHT22;5880;52.342;9.662;2023-08-06T08:49:02;23.70;63.80
11647;DHT22;5880;52.342;9.662;2023-08-06T08:51:28;23.70;63.80
11647;DHT22;5880;52.342;9.662;2023-08-06T08:53:55;23.60;63.70
11647;DHT22;5880;52.342;9.662;2023-08-06T08:56:23;23.60;64.20
11647;DHT22;5880;52.342;9.662;2023-08-06T08:58:49;23.70;64.40
11647;DHT22;5880;52.342;9.662;2023-08-06T09:01:17;23.60;64.90
11647;DHT22;5880;52.342;9.662;2023-08-06T09:03:43;23.50;64.70
11647;DHT22;5880;52.342;9.662;2023-08-06T09:06:11;23.60;64.80
11647;DHT22;5880;52.342;9.662;2023-08-06T09:08:43;23.50;65.00
11647;DHT22;5880;52.342;9.662;2023-08-06T09:11:36;23.50;63.70
11647;DHT22;5880;52.342;9.662;2023-08-06T09:14:07;23.60;63.70
11647;DHT22;5880;52.342;9.662;2023-08-06T09:16:37;23.50;64.70
11647;DHT22;5880;52.342;9.662;2023-08-06T09:19:13;23.50;64.10
11647;DHT22;5880;52.342;9.662;2023-08-06T09:21:41;23.50;64.00
11647;DHT22;5880;52.342;9.662;2023-08-06T09:24:14;23.50;64.70
11647;DHT22;5880;52.342;9.662;2023-08-06T09:26:41;23.50;63.70
11647;DHT22;5880;52.342;9.662;2023-08-06T09:29:08;23.50;64.60
11647;DHT22;5880;52.342;9.662;2023-08-06T09:31:44;23.50;64.10
11647;DHT22;5880;52.342;9.662;2023-08-06T09:34:15;23.60;62.90
11647;DHT22;5880;52.342;9.662;2023-08-06T09:36:43;23.60;63.80
11647;DHT22;5880;52.342;9.662;2023-08-06T09:39:13;23.60;64.40
11647;DHT22;5880;52.342;9.662;2023-08-06T09:41:44;23.60;63.70
11647;DHT22;5880;52.342;9.662;2023-08-06T09:44:17;23.60;64.50
11647;DHT22;5880;52.342;9.662;2023-08-06T09:46:57;23.60;64.10
11647;DHT22;5880;52.342;9.662;2023-08-06T09:51:57;23.50;63.70
11647;DHT22;5880;52.342;9.662;2023-08-06T09:54:25;23.60;64.30
11647;DHT22;5880;52.342;9.662;2023-08-06T09:56:53;23.60;63.90
11647;DHT22;5880;52.342;9.662;2023-08-06T09:59:20;23.60;64.00
11647;DHT22;5880;52.342;9.662;2023-08-06T10:01:46;23.70;64.80
11647;DHT22;5880;52.342;9.662;2023-08-06T10:04:14;23.70;64.90
11647;DHT22;5880;52.342;9.662;2023-08-06T10:06:42;23.70;63.20
11647;DHT22;5880;52.342;9.662;2023-08-06T10:09:11;23.80;63.80
11647;DHT22;5880;52.342;9.662;2023-08-06T10:11:38;23.80;63.90
11647;DHT22;5880;52.342;9.662;2023-08-06T10:14:10;23.90;63.90
11647;DHT22;5880;52.342;9.662;2023-08-06T10:16:58;23.90;63.90
11647;DHT22;5880;52.342;9.662;2023-08-06T10:19:25;24.00;63.90
11647;DHT22;5880;52.342;9.662;2023-08-06T10:25:05;24.10;63.40
11647;DHT22;5880;52.342;9.662;2023-08-06T10:27:53;24.10;62.30
11647;DHT22;5880;52.342;9.662;2023-08-06T10:30:30;24.20;61.30
11647;DHT22;5880;52.342;9.662;2023-08-06T10:32:59;24.20;58.50
11647;DHT22;5880;52.342;9.662;2023-08-06T10:38:11;24.20;60.80
11647;DHT22;5880;52.342;9.662;2023-08-06T10:40:49;24.20;60.30
11647;DHT22;5880;52.342;9.662;2023-08-06T10:43:29;24.30;59.50
11647;DHT22;5880;52.342;9.662;2023-08-06T10:45:59;24.30;58.80
11647;DHT22;5880;52.342;9.662;2023-08-06T10:48:40;24.30;61.50
11647;DHT22;5880;52.342;9.662;2023-08-06T10:51:11;24.30;62.00
11647;DHT22;5880;52.342;9.662;2023-08-06T10:53:42;24.40;60.70
11647;DHT22;5880;52.342;9.662;2023-08-06T10:56:16;24.40;60.00
11647;DHT22;5880;52.342;9.662;2023-08-06T10:58:44;24.50;60.80
11647;DHT22;5880;52.342;9.662;2023-08-06T11:01:11;24.40;59.80
11647;DHT22;5880;52.342;9.662;2023-08-06T11:03:38;24.50;59.30
11647;DHT22;5880;52.342;9.662;2023-08-06T11:06:07;24.40;60.20
11647;DHT22;5880;52.342;9.662;2023-08-06T11:08:39;24.40;58.70
11647;DHT22;5880;52.342;9.662;2023-08-06T11:11:13;24.40;58.40
11647;DHT22;5880;52.342;9.662;2023-08-06T11:16:06;24.30;59.60
11647;DHT22;5880;52.342;9.662;2023-08-06T11:18:35;24.20;60.40
11647;DHT22;5880;52.342;9.662;2023-08-06T11:21:01;24.20;60.10
11647;DHT22;5880;52.342;9.662;2023-08-06T11:23:28;24.10;60.70
11647;DHT22;5880;52.342;9.662;2023-08-06T11:25:58;24.20;60.70
11647;DHT22;5880;52.342;9.662;2023-08-06T11:28:24;24.30;61.00
11647;DHT22;5880;52.342;9.662;2023-08-06T11:30:50;24.20;60.70
11647;DHT22;5880;52.342;9.662;2023-08-06T11:33:26;24.30;60.90
11647;DHT22;5880;52.342;9.662;2023-08-06T11:35:54;24.30;59.70
11647;DHT22;5880;52.342;9.662;2023-08-06T11:38:24;24.40;60.60
11647;DHT22;5880;52.342;9.662;2023-08-06T11:40:54;24.50;60.00
11647;DHT22;5880;52.342;9.662;2023-08-06T11:43:20;24.40;59.10
11647;DHT22;5880;52.342;9.662;2023-08-06T11:45:48;24.50;59.30
11647;DHT22;5880;52.342;9.662;2023-08-06T11:48:14;24.50;58.80
11647;DHT22;5880;52.342;9.662;2023-08-06T11:50:40;24.50;58.90
11647;DHT22;5880;52.342;9.662;2023-08-06T11:53:06;24.60;58.60
11647;DHT22;5880;52.342;9.662;2023-08-06T11:55:32;24.60;57.90
11647;DHT22;5880;52.342;9.662;2023-08-06T11:58:03;24.60;59.00
11647;DHT22;5880;52.342;9.662;2023-08-06T12:00:32;24.60;58.90
11647;DHT22;5880;52.342;9.662;2023-08-06T12:02:58;24.60;59.70
11647;DHT22;5880;52.342;9.662;2023-08-06T12:05:30;24.60;59.60
11647;DHT22;5880;52.342;9.662;2023-08-06T12:08:00;24.60;59.50
11647;DHT22;5880;52.342;9.662;2023-08-06T12:10:31;24.50;59.50
11647;DHT22;5880;52.342;9.662;2023-08-06T12:12:57;24.50;58.70
11647;DHT22;5880;52.342;9.662;2023-08-06T12:15:23;24.50;59.30
11647;DHT22;5880;52.342;9.662;2023-08-06T12:17:50;24.40;59.10
11647;DHT22;5880;52.342;9.662;2023-08-06T12:20:15;24.40;59.50
11647;DHT22;5880;52.342;9.662;2023-08-06T12:22:41;24.40;60.00
11647;DHT22;5880;52.342;9.662;2023-08-06T12:25:08;24.40;60.20
11647;DHT22;5880;52.342;9.662;2023-08-06T12:27:41;24.40;60.00
11647;DHT22;5880;52.342;9.662;2023-08-06T12:30:08;24.40;60.70
11647;DHT22;5880;52.342;9.662;2023-08-06T12:32:36;24.40;60.20
11647;DHT22;5880;52.342;9.662;2023-08-06T12:35:02;24.40;60.50
11647;DHT22;5880;52.342;9.662;2023-08-06T12:37:28;24.40;60.40
11647;DHT22;5880;52.342;9.662;2023-08-06T12:39:54;24.30;59.60
11647;DHT22;5880;52.342;9.662;2023-08-06T12:42:20;24.40;60.40
11647;DHT22;5880;52.342;9.662;2023-08-06T12:44:47;24.40;60.00
11647;DHT22;5880;52.342;9.662;2023-08-06T12:47:14;24.50;60.20
11647;DHT22;5880;52.342;9.662;2023-08-06T12:49:39;24.40;60.40
11647;DHT22;5880;52.342;9.662;2023-08-06T12:52:05;24.40;59.60
11647;DHT22;5880;52.342;9.662;2023-08-06T12:54:32;24.50;60.10
11647;DHT22;5880;52.342;9.662;2023-08-06T12:57:02;24.50;60.40
11647;DHT22;5880;52.342;9.662;2023-08-06T12:59:28;24.60;59.70
11647;DHT22;5880;52.342;9.662;2023-08-06T13:01:54;24.70;59.30
11647;DHT22;5880;52.342;9.662;2023-08-06T13:04:20;24.60;59.20
11647;DHT22;5880;52.342;9.662;2023-08-06T13:06:46;24.60;59.70
11647;DHT22;5880;52.342;9.662;2023-08-06T13:09:12;24.70;59.80
11647;DHT22;5880;52.342;9.662;2023-08-06T13:11:41;24.60;59.50
11647;DHT22;5880;52.342;9.662;2023-08-06T13:14:11;24.60;58.60
11647;DHT22;5880;52.342;9.662;2023-08-06T13:16:40;24.50;58.30
11647;DHT22;5880;52.342;9.662;2023-08-06T13:19:08;24.50;58.50
11647;DHT22;5880;52.342;9.662;2023-08-06T13:24:08;24.40;59.00
11647;DHT22;5880;52.342;9.662;2023-08-06T13:26:34;24.40;59.30
11647;DHT22;5880;52.342;9.662;2023-08-06T13:29:00;24.30;59.10
11647;DHT22;5880;52.342;9.662;2023-08-06T13:31:27;24.30;58.80
11647;DHT22;5880;52.342;9.662;2023-08-06T13:33:57;24.30;59.30
11647;DHT22;5880;52.342;9.662;2023-08-06T13:36:24;24.20;58.80
11647;DHT22;5880;52.342;9.662;2023-08-06T13:38:53;24.20;59.00
11647;DHT22;5880;52.342;9.662;2023-08-06T13:41:19;24.20;59.40
11647;DHT22;5880;52.342;9.662;2023-08-06T13:43:45;24.20;59.60
11647;DHT22;5880;52.342;9.662;2023-08-06T13:46:12;24.30;59.50
11647;DHT22;5880;52.342;9.662;2023-08-06T13:48:45;24.20;59.80
11647;DHT22;5880;52.342;9.662;2023-08-06T13:51:12;24.30;59.80
11647;DHT22;5880;52.342;9.662;2023-08-06T13:53:38;24.40;60.10
11647;DHT22;5880;52.342;9.662;2023-08-06T13:56:05;24.30;60.30
11647;DHT22;5880;52.342;9.662;2023-08-06T13:58:32;24.30;59.80
11647;DHT22;5880;52.342;9.662;2023-08-06T14:00:58;24.30;60.30
11647;DHT22;5880;52.342;9.662;2023-08-06T14:03:24;24.30;60.20
11647;DHT22;5880;52.342;9.662;2023-08-06T14:05:49;24.30;60.50
11647;DHT22;5880;52.342;9.662;2023-08-06T14:08:15;24.30;60.20
11647;DHT22;5880;52.342;9.662;2023-08-06T14:10:44;24.30;60.20
11647;DHT22;5880;52.342;9.662;2023-08-06T14:13:10;24.40;59.40
11647;DHT22;5880;52.342;9.662;2023-08-06T14:15:36;24.50;60.00
11647;DHT22;5880;52.342;9.662;2023-08-06T14:18:04;24.40;60.00
11647;DHT22;5880;52.342;9.662;2023-08-06T14:20:30;24.30;59.90
11647;DHT22;5880;52.342;9.662;2023-08-06T14:22:56;24.40;59.60
11647;DHT22;5880;52.342;9.662;2023-08-06T14:25:22;24.30;59.70
11647;DHT22;5880;52.342;9.662;2023-08-06T14:27:48;24.20;59.70
11647;DHT22;5880;52.342;9.662;2023-08-06T14:30:14;24.20;59.70
11647;DHT22;5880;52.342;9.662;2023-08-06T14:32:39;24.10;60.20
11647;DHT22;5880;52.342;9.662;2023-08-06T14:35:05;24.20;60.50
11647;DHT22;5880;52.342;9.662;2023-08-06T14:37:31;24.00;60.40
11647;DHT22;5880;52.342;9.662;2023-08-06T14:39:57;23.90;60.20
11647;DHT22;5880;52.342;9.662;2023-08-06T14:42:23;23.80;60.20
11647;DHT22;5880;52.342;9.662;2023-08-06T14:44:48;23.70;60.50
11647;DHT22;5880;52.342;9.662;2023-08-06T14:47:14;23.70;60.80
11647;DHT22;5880;52.342;9.662;2023-08-06T14:49:40;23.70;61.00
11647;DHT22;5880;52.342;9.662;2023-08-06T14:52:06;23.60;61.40
11647;DHT22;5880;52.342;9.662;2023-08-06T14:54:31;23.50;61.80
11647;DHT22;5880;52.342;9.662;2023-08-06T14:56:57;23.60;62.50
11647;DHT22;5880;52.342;9.662;2023-08-06T14:59:23;23.40;61.90
11647;DHT22;5880;52.342;9.662;2023-08-06T15:01:48;23.40;61.80
11647;DHT22;5880;52.342;9.662;2023-08-06T15:04:14;23.30;62.40
11647;DHT22;5880;52.342;9.662;2023-08-06T15:06:40;23.30;62.50
11647;DHT22;5880;52.342;9.662;2023-08-06T15:09:07;23.30;62.30
11647;DHT22;5880;52.342;9.662;2023-08-06T15:11:33;23.30;62.80
11647;DHT22;5880;52.342;9.662;2023-08-06T15:13:58;23.20;63.10
11647;DHT22;5880;52.342;9.662;2023-08-06T15:16:26;23.20;63.00
11647;DHT22;5880;52.342;9.662;2023-08-06T15:18:52;23.20;63.50
11647;DHT22;5880;52.342;9.662;2023-08-06T15:21:18;23.10;63.90
11647;DHT22;5880;52.342;9.662;2023-08-06T15:23:43;23.00;64.00
11647;DHT22;5880;52.342;9.662;2023-08-06T15:26:09;23.10;64.20
11647;DHT22;5880;52.342;9.662;2023-08-06T15:28:35;23.00;64.30
11647;DHT22;5880;52.342;9.662;2023-08-06T15:31:01;23.00;64.40
11647;DHT22;5880;52.342;9.662;2023-08-06T15:33:29;23.00;64.50
11647;DHT22;5880;52.342;9.662;2023-08-06T15:35:55;23.00;64.20
11647;DHT22;5880;52.342;9.662;2023-08-06T15:38:20;23.00;64.30
11647;DHT22;5880;52.342;9.662;2023-08-06T15:40:46;23.00;64.30
11647;DHT22;5880;52.342;9.662;2023-08-06T15:43:12;23.00;64.50
11647;DHT22;5880;52.342;9.662;2023-08-06T15:45:38;23.00;64.70
11647;DHT22;5880;52.342;9.662;2023-08-06T15:48:04;23.00;65.00
11647;DHT22;5880;52.342;9.662;2023-08-06T15:50:29;23.00;65.10
11647;DHT22;5880;52.342;9.662;2023-08-06T15:52:55;23.00;65.30
11647;DHT22;5880;52.342;9.662;2023-08-06T15:55:21;23.10;65.60
11647;DHT22;5880;52.342;9.662;2023-08-06T15:57:46;23.10;65.70